sensor_id;sensor_type;location;lat;lon;timestamp;P1;durP1;ratioP1;P2;durP2;ratioP2
79706;SDS011;69200;53.612;-2.416;2023-05-29T00:01:25;16.88;;;2.42;;
79706;SDS011;69200;53.612;-2.416;2023-05-29T00:03:51;15.52;;;2.13;;
79706;SDS011;69200;53.612;-2.416;2023-05-29T00:06:17;11.85;;;2.20;;
79706;SDS011;69200;53.612;-2.416;2023-05-29T00:08:44;11.38;;;2.83;;
79706;SDS011;69200;53.612;-2.416;2023-05-29T00:11:10;13.38;;;2.33;;
79706;SDS011;69200;53.612;-2.416;2023-05-29T00:13:35;13.13;;;2.47;;
79706;SDS011;69200;53.612;-2.416;2023-05-29T00:16:00;6.15;;;1.83;;
79706;SDS011;69200;53.612;-2.416;2023-05-29T00:18:27;12.15;;;2.50;;
79706;SDS011;69200;53.612;-2.416;2023-05-29T00:20:52;12.20;;;1.83;;
79706;SDS011;69200;53.612;-2.416;2023-05-29T00:23:18;12.85;;;2.45;;
79706;SDS011;69200;53.612;-2.416;2023-05-29T00:25:44;11.05;;;2.00;;
79706;SDS011;69200;53.612;-2.416;2023-05-29T00:28:09;9.95;;;1.90;;
79706;SDS011;69200;53.612;-2.416;2023-05-29T00:30:37;13.35;;;1.98;;
79706;SDS011;69200;53.612;-2.416;2023-05-29T00:33:02;13.93;;;2.10;;
79706;SDS011;69200;53.612;-2.416;2023-05-29T00:35:27;9.80;;;2.20;;
79706;SDS011;69200;53.612;-2.416;2023-05-29T00:37:53;16.63;;;2.45;;
79706;SDS011;69200;53.612;-2.416;2023-05-29T00:40:18;14.80;;;2.10;;
79706;SDS011;69200;53.612;-2.416;2023-05-29T00:42:43;20.30;;;2.90;;
79706;SDS011;69200;53.612;-2.416;2023-05-29T00:45:09;11.60;;;2.55;;
79706;SDS011;69200;53.612;-2.416;2023-05-29T00:47:35;13.15;;;2.45;;
79706;SDS011;69200;53.612;-2.416;2023-05-29T00:50:01;12.05;;;2.30;;
79706;SDS011;69200;53.612;-2.416;2023-05-29T00:52:28;12.88;;;2.60;;
79706;SDS011;69200;53.612;-2.416;2023-05-29T00:54:54;11.82;;;2.00;;
79706;SDS011;69200;53.612;-2.416;2023-05-29T00:57:19;9.50;;;1.90;;
79706;SDS011;69200;53.612;-2.416;2023-05-29T00:59:46;15.60;;;2.90;;
79706;SDS011;69200;53.612;-2.416;2023-05-29T01:02:12;16.23;;;2.25;;
79706;SDS011;69200;53.612;-2.416;2023-05-29T01:04:38;17.58;;;2.80;;
79706;SDS011;69200;53.612;-2.416;2023-05-29T01:07:04;10.93;;;2.25;;
79706;SDS011;69200;53.612;-2.416;2023-05-29T01:09:30;11.75;;;2.30;;
79706;SDS011;69200;53.612;-2.416;2023-05-29T01:12:13;14.75;;;2.63;;
79706;SDS011;69200;53.612;-2.416;2023-05-29T01:14:52;12.77;;;2.75;;
79706;SDS011;69200;53.612;-2.416;2023-05-29T01:28:40;11.23;;;1.98;;
79706;SDS011;69200;53.612;-2.416;2023-05-29T01:31:10;15.20;;;2.20;;
79706;SDS011;69200;53.612;-2.416;2023-05-29T01:33:40;8.40;;;2.22;;
79706;SDS011;69200;53.612;-2.416;2023-05-29T01:36:07;11.85;;;1.92;;
79706;SDS011;69200;53.612;-2.416;2023-05-29T01:38:33;9.80;;;2.15;;
79706;SDS011;69200;53.612;-2.416;2023-05-29T01:40:59;12.00;;;1.95;;
79706;SDS011;69200;53.612;-2.416;2023-05-29T01:43:25;9.25;;;2.65;;
79706;SDS011;69200;53.612;-2.416;2023-05-29T01:45:51;11.98;;;2.40;;
79706;SDS011;69200;53.612;-2.416;2023-05-29T01:48:17;11.00;;;2.15;;
79706;SDS011;69200;53.612;-2.416;2023-05-29T01:50:42;13.00;;;2.25;;
79706;SDS011;69200;53.612;-2.416;2023-05-29T01:53:09;14.57;;;2.45;;
79706;SDS011;69200;53.612;-2.416;2023-05-29T01:55:35;11.95;;;2.30;;
79706;SDS011;69200;53.612;-2.416;2023-05-29T01:58:00;11.45;;;2.50;;
79706;SDS011;69200;53.612;-2.416;2023-05-29T02:00:27;16.42;;;2.55;;
79706;SDS011;69200;53.612;-2.416;2023-05-29T02:02:52;11.90;;;3.30;;
79706;SDS011;69200;53.612;-2.416;2023-05-29T02:05:18;10.52;;;2.53;;
79706;SDS011;69200;53.612;-2.416;2023-05-29T02:07:43;13.07;;;2.42;;
79706;SDS011;69200;53.612;-2.416;2023-05-29T02:10:09;8.40;;;2.22;;
79706;SDS011;69200;53.612;-2.416;2023-05-29T02:12:35;10.85;;;2.80;;
79706;SDS011;69200;53.612;-2.416;2023-05-29T02:15:00;9.70;;;2.20;;
79706;SDS011;69200;53.612;-2.416;2023-05-29T02:17:26;11.80;;;2.67;;
79706;SDS011;69200;53.612;-2.416;2023-05-29T02:19:51;12.00;;;2.45;;
79706;SDS011;69200;53.612;-2.416;2023-05-29T02:22:17;10.35;;;2.20;;
79706;SDS011;69200;53.612;-2.416;2023-05-29T02:24:43;9.57;;;2.40;;
79706;SDS011;69200;53.612;-2.416;2023-05-29T02:27:09;11.43;;;2.17;;
79706;SDS011;69200;53.612;-2.416;2023-05-29T02:29:34;11.00;;;2.53;;
79706;SDS011;69200;53.612;-2.416;2023-05-29T02:32:00;11.43;;;2.53;;
79706;SDS011;69200;53.612;-2.416;2023-05-29T02:34:25;10.80;;;2.13;;
79706;SDS011;69200;53.612;-2.416;2023-05-29T02:36:50;11.57;;;2.40;;
79706;SDS011;69200;53.612;-2.416;2023-05-29T02:39:19;15.18;;;3.00;;
79706;SDS011;69200;53.612;-2.416;2023-05-29T02:41:45;19.45;;;2.83;;
79706;SDS011;69200;53.612;-2.416;2023-05-29T02:44:10;13.60;;;2.38;;
79706;SDS011;69200;53.612;-2.416;2023-05-29T02:46:36;10.13;;;2.00;;
79706;SDS011;69200;53.612;-2.416;2023-05-29T02:49:01;8.27;;;2.35;;
79706;SDS011;69200;53.612;-2.416;2023-05-29T02:51:27;12.95;;;2.80;;
79706;SDS011;69200;53.612;-2.416;2023-05-29T02:53:52;12.65;;;2.72;;
79706;SDS011;69200;53.612;-2.416;2023-05-29T02:56:18;11.15;;;2.60;;
79706;SDS011;69200;53.612;-2.416;2023-05-29T02:58:44;11.07;;;2.28;;
79706;SDS011;69200;53.612;-2.416;2023-05-29T03:01:10;10.57;;;2.30;;
79706;SDS011;69200;53.612;-2.416;2023-05-29T03:03:35;10.52;;;1.90;;
79706;SDS011;69200;53.612;-2.416;2023-05-29T03:06:01;14.52;;;2.22;;
79706;SDS011;69200;53.612;-2.416;2023-05-29T03:08:27;12.40;;;2.70;;
79706;SDS011;69200;53.612;-2.416;2023-05-29T03:10:53;14.65;;;2.33;;
79706;SDS011;69200;53.612;-2.416;2023-05-29T03:13:19;14.38;;;2.20;;
79706;SDS011;69200;53.612;-2.416;2023-05-29T03:15:44;12.77;;;2.67;;
79706;SDS011;69200;53.612;-2.416;2023-05-29T03:18:10;11.52;;;2.10;;
79706;SDS011;69200;53.612;-2.416;2023-05-29T03:20:35;9.55;;;2.15;;
79706;SDS011;69200;53.612;-2.416;2023-05-29T03:23:01;9.40;;;1.77;;
79706;SDS011;69200;53.612;-2.416;2023-05-29T03:25:27;10.35;;;2.22;;
79706;SDS011;69200;53.612;-2.416;2023-05-29T03:27:52;14.82;;;2.40;;
79706;SDS011;69200;53.612;-2.416;2023-05-29T03:30:18;9.95;;;1.80;;
79706;SDS011;69200;53.612;-2.416;2023-05-29T03:32:45;7.38;;;1.73;;
79706;SDS011;69200;53.612;-2.416;2023-05-29T03:35:10;7.90;;;2.25;;
79706;SDS011;69200;53.612;-2.416;2023-05-29T03:37:36;11.18;;;2.60;;
79706;SDS011;69200;53.612;-2.416;2023-05-29T03:40:02;12.40;;;2.22;;
79706;SDS011;69200;53.612;-2.416;2023-05-29T03:42:29;8.52;;;2.20;;
79706;SDS011;69200;53.612;-2.416;2023-05-29T03:44:56;9.85;;;2.13;;
79706;SDS011;69200;53.612;-2.416;2023-05-29T03:47:21;6.80;;;2.03;;
79706;SDS011;69200;53.612;-2.416;2023-05-29T03:49:47;8.75;;;1.63;;
79706;SDS011;69200;53.612;-2.416;2023-05-29T03:52:12;9.73;;;2.25;;
79706;SDS011;69200;53.612;-2.416;2023-05-29T03:54:38;10.32;;;2.25;;
79706;SDS011;69200;53.612;-2.416;2023-05-29T03:57:03;9.52;;;1.98;;
79706;SDS011;69200;53.612;-2.416;2023-05-29T03:59:29;6.78;;;1.67;;
79706;SDS011;69200;53.612;-2.416;2023-05-29T04:01:54;7.32;;;1.85;;
79706;SDS011;69200;53.612;-2.416;2023-05-29T04:04:19;10.23;;;1.92;;
79706;SDS011;69200;53.612;-2.416;2023-05-29T04:06:45;8.70;;;2.05;;
79706;SDS011;69200;53.612;-2.416;2023-05-29T04:09:10;7.70;;;1.92;;
79706;SDS011;69200;53.612;-2.416;2023-05-29T04:11:36;8.02;;;2.17;;
79706;SDS011;69200;53.612;-2.416;2023-05-29T04:14:02;9.63;;;2.10;;
79706;SDS011;69200;53.612;-2.416;2023-05-29T04:16:27;12.68;;;2.33;;
79706;SDS011;69200;53.612;-2.416;2023-05-29T04:18:54;7.90;;;2.50;;
79706;SDS011;69200;53.612;-2.416;2023-05-29T04:21:19;10.88;;;2.63;;
79706;SDS011;69200;53.612;-2.416;2023-05-29T04:23:46;12.13;;;2.70;;
79706;SDS011;69200;53.612;-2.416;2023-05-29T04:26:11;9.40;;;2.05;;
79706;SDS011;69200;53.612;-2.416;2023-05-29T04:28:37;10.70;;;2.00;;
79706;SDS011;69200;53.612;-2.416;2023-05-29T04:31:03;11.77;;;2.10;;
79706;SDS011;69200;53.612;-2.416;2023-05-29T04:33:30;12.13;;;1.83;;
79706;SDS011;69200;53.612;-2.416;2023-05-29T04:35:57;7.00;;;1.75;;
79706;SDS011;69200;53.612;-2.416;2023-05-29T04:38:23;10.80;;;2.10;;
79706;SDS011;69200;53.612;-2.416;2023-05-29T04:40:51;9.75;;;1.80;;
79706;SDS011;69200;53.612;-2.416;2023-05-29T04:43:17;8.32;;;1.80;;
79706;SDS011;69200;53.612;-2.416;2023-05-29T04:45:42;8.35;;;1.73;;
79706;SDS011;69200;53.612;-2.416;2023-05-29T04:48:08;9.00;;;1.67;;
79706;SDS011;69200;53.612;-2.416;2023-05-29T04:50:33;11.00;;;1.95;;
79706;SDS011;69200;53.612;-2.416;2023-05-29T04:53:00;6.25;;;1.40;;
79706;SDS011;69200;53.612;-2.416;2023-05-29T04:55:26;6.43;;;1.88;;
79706;SDS011;69200;53.612;-2.416;2023-05-29T04:57:52;8.75;;;1.90;;
79706;SDS011;69200;53.612;-2.416;2023-05-29T05:00:18;10.82;;;2.00;;
79706;SDS011;69200;53.612;-2.416;2023-05-29T05:02:44;9.88;;;1.83;;
79706;SDS011;69200;53.612;-2.416;2023-05-29T05:05:10;7.70;;;1.67;;
79706;SDS011;69200;53.612;-2.416;2023-05-29T05:07:36;7.82;;;1.63;;
79706;SDS011;69200;53.612;-2.416;2023-05-29T05:10:02;11.63;;;2.08;;
79706;SDS011;69200;53.612;-2.416;2023-05-29T05:12:28;6.57;;;1.65;;
79706;SDS011;69200;53.612;-2.416;2023-05-29T05:14:54;4.22;;;1.27;;
79706;SDS011;69200;53.612;-2.416;2023-05-29T05:17:19;8.45;;;1.58;;
79706;SDS011;69200;53.612;-2.416;2023-05-29T05:19:45;10.32;;;1.70;;
79706;SDS011;69200;53.612;-2.416;2023-05-29T05:22:10;7.68;;;1.50;;
79706;SDS011;69200;53.612;-2.416;2023-05-29T05:24:36;9.27;;;1.80;;
79706;SDS011;69200;53.612;-2.416;2023-05-29T05:27:01;8.13;;;1.80;;
79706;SDS011;69200;53.612;-2.416;2023-05-29T05:29:27;8.05;;;1.58;;
79706;SDS011;69200;53.612;-2.416;2023-05-29T05:31:53;7.30;;;1.70;;
79706;SDS011;69200;53.612;-2.416;2023-05-29T05:34:18;6.65;;;1.50;;
79706;SDS011;69200;53.612;-2.416;2023-05-29T05:36:44;7.00;;;1.48;;
79706;SDS011;69200;53.612;-2.416;2023-05-29T05:39:09;5.95;;;1.48;;
79706;SDS011;69200;53.612;-2.416;2023-05-29T05:41:35;5.90;;;1.30;;
79706;SDS011;69200;53.612;-2.416;2023-05-29T05:44:00;6.03;;;1.20;;
79706;SDS011;69200;53.612;-2.416;2023-05-29T05:46:25;7.35;;;1.60;;
79706;SDS011;69200;53.612;-2.416;2023-05-29T05:48:51;6.53;;;1.48;;
79706;SDS011;69200;53.612;-2.416;2023-05-29T05:51:16;9.23;;;1.52;;
79706;SDS011;69200;53.612;-2.416;2023-05-29T05:53:42;8.82;;;1.70;;
79706;SDS011;69200;53.612;-2.416;2023-05-29T05:56:08;5.80;;;1.25;;
79706;SDS011;69200;53.612;-2.416;2023-05-29T05:58:33;6.22;;;1.30;;
79706;SDS011;69200;53.612;-2.416;2023-05-29T06:00:59;8.98;;;1.42;;
79706;SDS011;69200;53.612;-2.416;2023-05-29T06:03:26;4.18;;;1.25;;
79706;SDS011;69200;53.612;-2.416;2023-05-29T06:05:51;5.10;;;1.27;;
79706;SDS011;69200;53.612;-2.416;2023-05-29T06:08:19;5.65;;;1.10;;
79706;SDS011;69200;53.612;-2.416;2023-05-29T06:10:44;5.13;;;1.27;;
79706;SDS011;69200;53.612;-2.416;2023-05-29T06:13:10;8.52;;;1.75;;
79706;SDS011;69200;53.612;-2.416;2023-05-29T06:15:35;7.53;;;1.52;;
79706;SDS011;69200;53.612;-2.416;2023-05-29T06:18:00;7.22;;;1.73;;
79706;SDS011;69200;53.612;-2.416;2023-05-29T06:20:26;10.10;;;1.30;;
79706;SDS011;69200;53.612;-2.416;2023-05-29T06:22:51;4.80;;;1.00;;
79706;SDS011;69200;53.612;-2.416;2023-05-29T06:25:17;5.13;;;1.23;;
79706;SDS011;69200;53.612;-2.416;2023-05-29T06:27:45;5.18;;;1.20;;
79706;SDS011;69200;53.612;-2.416;2023-05-29T06:30:11;7.00;;;1.20;;
79706;SDS011;69200;53.612;-2.416;2023-05-29T06:32:37;5.82;;;1.35;;
79706;SDS011;69200;53.612;-2.416;2023-05-29T06:35:03;5.57;;;1.10;;
79706;SDS011;69200;53.612;-2.416;2023-05-29T06:37:28;7.18;;;1.27;;
79706;SDS011;69200;53.612;-2.416;2023-05-29T06:39:54;5.55;;;1.15;;
79706;SDS011;69200;53.612;-2.416;2023-05-29T06:42:19;7.20;;;1.25;;
79706;SDS011;69200;53.612;-2.416;2023-05-29T06:44:44;9.15;;;1.40;;
79706;SDS011;69200;53.612;-2.416;2023-05-29T06:47:10;7.25;;;1.30;;
79706;SDS011;69200;53.612;-2.416;2023-05-29T06:49:35;7.45;;;1.33;;
79706;SDS011;69200;53.612;-2.416;2023-05-29T06:52:00;5.88;;;1.30;;
79706;SDS011;69200;53.612;-2.416;2023-05-29T06:54:26;6.85;;;1.27;;
79706;SDS011;69200;53.612;-2.416;2023-05-29T06:56:51;8.98;;;1.55;;
79706;SDS011;69200;53.612;-2.416;2023-05-29T06:59:18;6.80;;;1.17;;
79706;SDS011;69200;53.612;-2.416;2023-05-29T07:01:43;8.18;;;1.30;;
79706;SDS011;69200;53.612;-2.416;2023-05-29T07:04:09;5.68;;;1.00;;
79706;SDS011;69200;53.612;-2.416;2023-05-29T07:06:36;7.35;;;1.42;;
79706;SDS011;69200;53.612;-2.416;2023-05-29T07:09:01;6.65;;;1.27;;
79706;SDS011;69200;53.612;-2.416;2023-05-29T07:11:27;4.13;;;0.95;;
79706;SDS011;69200;53.612;-2.416;2023-05-29T07:13:55;9.35;;;1.38;;
79706;SDS011;69200;53.612;-2.416;2023-05-29T07:16:20;4.30;;;1.35;;
79706;SDS011;69200;53.612;-2.416;2023-05-29T07:18:46;9.68;;;1.40;;
79706;SDS011;69200;53.612;-2.416;2023-05-29T07:21:11;5.85;;;1.08;;
79706;SDS011;69200;53.612;-2.416;2023-05-29T07:23:37;9.38;;;2.17;;
79706;SDS011;69200;53.612;-2.416;2023-05-29T07:26:02;6.25;;;1.40;;
79706;SDS011;69200;53.612;-2.416;2023-05-29T07:28:27;5.88;;;1.23;;
79706;SDS011;69200;53.612;-2.416;2023-05-29T07:30:53;5.70;;;1.33;;
79706;SDS011;69200;53.612;-2.416;2023-05-29T07:33:18;3.72;;;0.90;;
79706;SDS011;69200;53.612;-2.416;2023-05-29T07:35:44;6.53;;;1.40;;
79706;SDS011;69200;53.612;-2.416;2023-05-29T07:38:09;8.63;;;1.20;;
79706;SDS011;69200;53.612;-2.416;2023-05-29T07:40:35;10.13;;;1.30;;
79706;SDS011;69200;53.612;-2.416;2023-05-29T07:43:00;10.77;;;1.58;;
79706;SDS011;69200;53.612;-2.416;2023-05-29T07:45:26;6.40;;;1.48;;
79706;SDS011;69200;53.612;-2.416;2023-05-29T07:47:52;7.65;;;1.40;;
79706;SDS011;69200;53.612;-2.416;2023-05-29T07:50:17;7.95;;;1.70;;
79706;SDS011;69200;53.612;-2.416;2023-05-29T07:52:43;11.27;;;2.20;;
79706;SDS011;69200;53.612;-2.416;2023-05-29T07:55:09;6.78;;;1.30;;
79706;SDS011;69200;53.612;-2.416;2023-05-29T07:57:34;5.35;;;1.45;;
79706;SDS011;69200;53.612;-2.416;2023-05-29T08:00:00;5.30;;;1.30;;
79706;SDS011;69200;53.612;-2.416;2023-05-29T08:02:30;6.70;;;1.38;;
79706;SDS011;69200;53.612;-2.416;2023-05-29T08:04:56;8.30;;;1.15;;
79706;SDS011;69200;53.612;-2.416;2023-05-29T08:07:21;5.25;;;1.42;;
79706;SDS011;69200;53.612;-2.416;2023-05-29T08:09:46;6.72;;;1.33;;
79706;SDS011;69200;53.612;-2.416;2023-05-29T08:12:12;5.47;;;1.65;;
79706;SDS011;69200;53.612;-2.416;2023-05-29T08:14:37;6.65;;;1.30;;
79706;SDS011;69200;53.612;-2.416;2023-05-29T08:17:03;8.50;;;1.30;;
79706;SDS011;69200;53.612;-2.416;2023-05-29T08:19:28;7.93;;;1.33;;
79706;SDS011;69200;53.612;-2.416;2023-05-29T08:21:54;7.28;;;1.50;;
79706;SDS011;69200;53.612;-2.416;2023-05-29T08:24:19;6.45;;;1.40;;
79706;SDS011;69200;53.612;-2.416;2023-05-29T08:26:45;6.97;;;1.30;;
79706;SDS011;69200;53.612;-2.416;2023-05-29T08:29:10;6.10;;;1.23;;
79706;SDS011;69200;53.612;-2.416;2023-05-29T08:31:36;8.57;;;1.30;;
79706;SDS011;69200;53.612;-2.416;2023-05-29T08:34:01;8.80;;;2.20;;
79706;SDS011;69200;53.612;-2.416;2023-05-29T08:36:27;10.88;;;1.80;;
79706;SDS011;69200;53.612;-2.416;2023-05-29T08:38:52;7.43;;;1.45;;
79706;SDS011;69200;53.612;-2.416;2023-05-29T08:41:22;7.38;;;1.20;;
79706;SDS011;69200;53.612;-2.416;2023-05-29T08:43:54;4.70;;;0.90;;
79706;SDS011;69200;53.612;-2.416;2023-05-29T08:46:21;7.85;;;1.90;;
79706;SDS011;69200;53.612;-2.416;2023-05-29T08:48:49;6.65;;;1.30;;
79706;SDS011;69200;53.612;-2.416;2023-05-29T08:51:19;4.70;;;1.15;;
79706;SDS011;69200;53.612;-2.416;2023-05-29T08:53:46;6.15;;;1.40;;
79706;SDS011;69200;53.612;-2.416;2023-05-29T08:56:12;7.43;;;1.30;;
79706;SDS011;69200;53.612;-2.416;2023-05-29T08:58:37;8.32;;;1.58;;
79706;SDS011;69200;53.612;-2.416;2023-05-29T09:01:03;9.88;;;1.65;;
79706;SDS011;69200;53.612;-2.416;2023-05-29T09:03:29;7.25;;;1.42;;
79706;SDS011;69200;53.612;-2.416;2023-05-29T09:05:58;6.82;;;1.45;;
79706;SDS011;69200;53.612;-2.416;2023-05-29T09:08:28;4.78;;;1.40;;
79706;SDS011;69200;53.612;-2.416;2023-05-29T09:10:54;5.00;;;1.33;;
79706;SDS011;69200;53.612;-2.416;2023-05-29T09:13:20;8.45;;;1.98;;
79706;SDS011;69200;53.612;-2.416;2023-05-29T09:15:46;5.72;;;1.40;;
79706;SDS011;69200;53.612;-2.416;2023-05-29T09:18:11;10.38;;;1.77;;
79706;SDS011;69200;53.612;-2.416;2023-05-29T09:20:37;5.28;;;1.20;;
79706;SDS011;69200;53.612;-2.416;2023-05-29T09:23:04;8.90;;;1.60;;
79706;SDS011;69200;53.612;-2.416;2023-05-29T09:25:32;10.02;;;1.40;;
79706;SDS011;69200;53.612;-2.416;2023-05-29T09:28:02;7.05;;;1.65;;
79706;SDS011;69200;53.612;-2.416;2023-05-29T09:33:02;6.70;;;1.33;;
79706;SDS011;69200;53.612;-2.416;2023-05-29T09:38:04;7.00;;;1.60;;
79706;SDS011;69200;53.612;-2.416;2023-05-29T09:40:31;4.95;;;1.27;;
79706;SDS011;69200;53.612;-2.416;2023-05-29T09:43:04;6.72;;;1.48;;
79706;SDS011;69200;53.612;-2.416;2023-05-29T09:45:42;5.97;;;1.17;;
79706;SDS011;69200;53.612;-2.416;2023-05-29T09:48:12;8.40;;;1.60;;
79706;SDS011;69200;53.612;-2.416;2023-05-29T09:50:39;6.10;;;1.55;;
79706;SDS011;69200;53.612;-2.416;2023-05-29T09:53:21;5.68;;;1.10;;
79706;SDS011;69200;53.612;-2.416;2023-05-29T09:55:51;5.78;;;1.50;;
79706;SDS011;69200;53.612;-2.416;2023-05-29T09:58:18;7.63;;;1.77;;
79706;SDS011;69200;53.612;-2.416;2023-05-29T10:00:44;5.68;;;1.88;;
79706;SDS011;69200;53.612;-2.416;2023-05-29T10:03:11;8.38;;;1.40;;
79706;SDS011;69200;53.612;-2.416;2023-05-29T10:05:39;5.40;;;1.50;;
79706;SDS011;69200;53.612;-2.416;2023-05-29T10:08:05;6.53;;;1.38;;
79706;SDS011;69200;53.612;-2.416;2023-05-29T10:10:36;11.93;;;1.92;;
79706;SDS011;69200;53.612;-2.416;2023-05-29T10:13:03;8.07;;;1.50;;
79706;SDS011;69200;53.612;-2.416;2023-05-29T10:15:31;10.40;;;1.80;;
79706;SDS011;69200;53.612;-2.416;2023-05-29T10:18:03;8.52;;;1.90;;
79706;SDS011;69200;53.612;-2.416;2023-05-29T10:20:35;7.22;;;1.60;;
79706;SDS011;69200;53.612;-2.416;2023-05-29T10:23:01;7.78;;;1.50;;
79706;SDS011;69200;53.612;-2.416;2023-05-29T10:25:29;6.35;;;1.27;;
79706;SDS011;69200;53.612;-2.416;2023-05-29T10:27:57;7.00;;;1.50;;
79706;SDS011;69200;53.612;-2.416;2023-05-29T10:36:26;11.05;;;2.00;;
79706;SDS011;69200;53.612;-2.416;2023-05-29T10:38:57;9.85;;;1.67;;
79706;SDS011;69200;53.612;-2.416;2023-05-29T10:43:57;9.27;;;1.73;;
79706;SDS011;69200;53.612;-2.416;2023-05-29T10:49:18;7.85;;;1.70;;
79706;SDS011;69200;53.612;-2.416;2023-05-29T10:51:45;7.75;;;1.75;;
79706;SDS011;69200;53.612;-2.416;2023-05-29T10:54:11;6.40;;;1.58;;
79706;SDS011;69200;53.612;-2.416;2023-05-29T10:56:38;7.45;;;1.50;;
79706;SDS011;69200;53.612;-2.416;2023-05-29T10:59:06;9.75;;;1.70;;
79706;SDS011;69200;53.612;-2.416;2023-05-29T11:01:33;9.38;;;2.22;;
79706;SDS011;69200;53.612;-2.416;2023-05-29T11:06:41;6.53;;;1.30;;
79706;SDS011;69200;53.612;-2.416;2023-05-29T11:09:07;7.03;;;1.70;;
79706;SDS011;69200;53.612;-2.416;2023-05-29T11:12:21;7.18;;;1.85;;
79706;SDS011;69200;53.612;-2.416;2023-05-29T11:15:04;9.68;;;1.80;;
79706;SDS011;69200;53.612;-2.416;2023-05-29T11:23:03;6.45;;;1.70;;
79706;SDS011;69200;53.612;-2.416;2023-05-29T11:25:34;9.55;;;1.75;;
79706;SDS011;69200;53.612;-2.416;2023-05-29T11:28:02;7.93;;;1.92;;
79706;SDS011;69200;53.612;-2.416;2023-05-29T11:30:33;5.90;;;1.70;;
79706;SDS011;69200;53.612;-2.416;2023-05-29T11:33:06;7.05;;;1.65;;
79706;SDS011;69200;53.612;-2.416;2023-05-29T11:35:34;7.57;;;1.63;;
79706;SDS011;69200;53.612;-2.416;2023-05-29T11:38:03;7.25;;;1.60;;
79706;SDS011;69200;53.612;-2.416;2023-05-29T11:40:29;7.80;;;1.60;;
79706;SDS011;69200;53.612;-2.416;2023-05-29T11:42:54;6.40;;;1.52;;
79706;SDS011;69200;53.612;-2.416;2023-05-29T11:45:21;8.30;;;1.73;;
79706;SDS011;69200;53.612;-2.416;2023-05-29T11:47:50;10.45;;;1.90;;
79706;SDS011;69200;53.612;-2.416;2023-05-29T11:50:20;7.85;;;1.65;;
79706;SDS011;69200;53.612;-2.416;2023-05-29T11:52:49;10.82;;;1.80;;
79706;SDS011;69200;53.612;-2.416;2023-05-29T11:55:17;7.65;;;1.85;;
79706;SDS011;69200;53.612;-2.416;2023-05-29T11:57:43;7.78;;;1.70;;
79706;SDS011;69200;53.612;-2.416;2023-05-29T12:00:12;11.32;;;2.55;;
79706;SDS011;69200;53.612;-2.416;2023-05-29T12:02:39;9.70;;;2.05;;
79706;SDS011;69200;53.612;-2.416;2023-05-29T12:05:05;5.85;;;1.70;;
79706;SDS011;69200;53.612;-2.416;2023-05-29T12:07:34;7.35;;;1.58;;
79706;SDS011;69200;53.612;-2.416;2023-05-29T12:10:12;8.95;;;1.92;;
79706;SDS011;69200;53.612;-2.416;2023-05-29T12:12:39;6.72;;;1.67;;
79706;SDS011;69200;53.612;-2.416;2023-05-29T12:15:05;8.52;;;2.15;;
79706;SDS011;69200;53.612;-2.416;2023-05-29T12:17:32;8.45;;;1.95;;
79706;SDS011;69200;53.612;-2.416;2023-05-29T12:19:58;9.40;;;1.83;;
79706;SDS011;69200;53.612;-2.416;2023-05-29T12:22:33;8.63;;;1.83;;
79706;SDS011;69200;53.612;-2.416;2023-05-29T12:25:04;7.47;;;1.92;;
79706;SDS011;69200;53.612;-2.416;2023-05-29T12:27:31;9.30;;;2.13;;
79706;SDS011;69200;53.612;-2.416;2023-05-29T12:30:00;8.05;;;1.67;;
79706;SDS011;69200;53.612;-2.416;2023-05-29T12:32:34;8.35;;;2.20;;
79706;SDS011;69200;53.612;-2.416;2023-05-29T12:35:12;10.63;;;1.95;;
79706;SDS011;69200;53.612;-2.416;2023-05-29T12:37:46;8.63;;;2.30;;
79706;SDS011;69200;53.612;-2.416;2023-05-29T12:40:24;8.82;;;1.90;;
79706;SDS011;69200;53.612;-2.416;2023-05-29T12:43:06;7.38;;;1.70;;
79706;SDS011;69200;53.612;-2.416;2023-05-29T12:45:35;6.32;;;1.80;;
79706;SDS011;69200;53.612;-2.416;2023-05-29T12:48:01;7.25;;;2.00;;
79706;SDS011;69200;53.612;-2.416;2023-05-29T12:50:39;10.13;;;1.95;;
79706;SDS011;69200;53.612;-2.416;2023-05-29T12:53:05;7.60;;;1.70;;
79706;SDS011;69200;53.612;-2.416;2023-05-29T12:55:39;10.05;;;2.13;;
79706;SDS011;69200;53.612;-2.416;2023-05-29T12:58:09;8.15;;;1.75;;
79706;SDS011;69200;53.612;-2.416;2023-05-29T13:03:09;8.50;;;2.42;;
79706;SDS011;69200;53.612;-2.416;2023-05-29T13:05:37;7.78;;;1.90;;
79706;SDS011;69200;53.612;-2.416;2023-05-29T13:08:03;9.63;;;1.63;;
79706;SDS011;69200;53.612;-2.416;2023-05-29T13:10:32;6.30;;;2.08;;
79706;SDS011;69200;53.612;-2.416;2023-05-29T13:12:59;8.60;;;1.60;;
79706;SDS011;69200;53.612;-2.416;2023-05-29T13:15:25;5.95;;;1.90;;
79706;SDS011;69200;53.612;-2.416;2023-05-29T13:17:51;9.80;;;2.10;;
79706;SDS011;69200;53.612;-2.416;2023-05-29T13:20:17;7.40;;;1.60;;
79706;SDS011;69200;53.612;-2.416;2023-05-29T13:22:44;5.68;;;1.60;;
79706;SDS011;69200;53.612;-2.416;2023-05-29T13:25:11;7.07;;;1.63;;
79706;SDS011;69200;53.612;-2.416;2023-05-29T13:27:38;7.10;;;1.58;;
79706;SDS011;69200;53.612;-2.416;2023-05-29T13:30:05;11.75;;;2.38;;
79706;SDS011;69200;53.612;-2.416;2023-05-29T13:32:32;8.85;;;1.83;;
79706;SDS011;69200;53.612;-2.416;2023-05-29T13:34:57;8.00;;;1.92;;
79706;SDS011;69200;53.612;-2.416;2023-05-29T13:37:23;8.05;;;1.73;;
79706;SDS011;69200;53.612;-2.416;2023-05-29T13:39:48;8.10;;;1.80;;
79706;SDS011;69200;53.612;-2.416;2023-05-29T13:42:14;7.15;;;1.90;;
79706;SDS011;69200;53.612;-2.416;2023-05-29T13:44:40;9.20;;;1.80;;
79706;SDS011;69200;53.612;-2.416;2023-05-29T13:47:05;6.05;;;1.70;;
79706;SDS011;69200;53.612;-2.416;2023-05-29T13:49:32;7.03;;;1.88;;
79706;SDS011;69200;53.612;-2.416;2023-05-29T13:51:58;7.55;;;1.52;;
79706;SDS011;69200;53.612;-2.416;2023-05-29T13:54:23;7.85;;;2.13;;
79706;SDS011;69200;53.612;-2.416;2023-05-29T13:56:49;7.55;;;1.80;;
79706;SDS011;69200;53.612;-2.416;2023-05-29T13:59:14;7.28;;;1.80;;
79706;SDS011;69200;53.612;-2.416;2023-05-29T14:01:40;8.23;;;1.80;;
79706;SDS011;69200;53.612;-2.416;2023-05-29T14:04:05;8.68;;;1.95;;
79706;SDS011;69200;53.612;-2.416;2023-05-29T14:06:30;7.43;;;2.05;;
79706;SDS011;69200;53.612;-2.416;2023-05-29T14:08:57;6.72;;;1.55;;
79706;SDS011;69200;53.612;-2.416;2023-05-29T14:11:22;5.07;;;1.63;;
79706;SDS011;69200;53.612;-2.416;2023-05-29T14:13:48;9.80;;;1.98;;
79706;SDS011;69200;53.612;-2.416;2023-05-29T14:16:13;9.13;;;1.73;;
79706;SDS011;69200;53.612;-2.416;2023-05-29T14:18:40;7.00;;;1.60;;
79706;SDS011;69200;53.612;-2.416;2023-05-29T14:21:06;8.82;;;1.80;;
79706;SDS011;69200;53.612;-2.416;2023-05-29T14:23:32;7.18;;;1.55;;
79706;SDS011;69200;53.612;-2.416;2023-05-29T14:25:59;6.65;;;1.65;;
79706;SDS011;69200;53.612;-2.416;2023-05-29T14:28:24;5.10;;;1.58;;
79706;SDS011;69200;53.612;-2.416;2023-05-29T14:30:50;6.25;;;1.73;;
79706;SDS011;69200;53.612;-2.416;2023-05-29T14:33:15;7.57;;;1.90;;
79706;SDS011;69200;53.612;-2.416;2023-05-29T14:35:40;7.97;;;1.70;;
79706;SDS011;69200;53.612;-2.416;2023-05-29T14:38:06;7.68;;;2.40;;
79706;SDS011;69200;53.612;-2.416;2023-05-29T14:40:31;10.65;;;1.95;;
79706;SDS011;69200;53.612;-2.416;2023-05-29T14:42:58;8.73;;;1.90;;
79706;SDS011;69200;53.612;-2.416;2023-05-29T14:45:24;6.90;;;1.80;;
79706;SDS011;69200;53.612;-2.416;2023-05-29T14:47:50;8.70;;;1.85;;
79706;SDS011;69200;53.612;-2.416;2023-05-29T14:50:16;8.20;;;1.90;;
79706;SDS011;69200;53.612;-2.416;2023-05-29T14:52:41;5.95;;;1.50;;
79706;SDS011;69200;53.612;-2.416;2023-05-29T14:55:06;6.43;;;1.80;;
79706;SDS011;69200;53.612;-2.416;2023-05-29T14:57:32;7.22;;;2.17;;
79706;SDS011;69200;53.612;-2.416;2023-05-29T14:59:59;8.18;;;1.65;;
79706;SDS011;69200;53.612;-2.416;2023-05-29T15:02:25;6.15;;;1.65;;
79706;SDS011;69200;53.612;-2.416;2023-05-29T15:04:50;7.22;;;1.98;;
79706;SDS011;69200;53.612;-2.416;2023-05-29T15:07:16;9.88;;;1.75;;